Terminal Aerodrome Forecast
Issued by NWS Jacksonville, FL

Home | Current Version | Previous Version | Text Only | Print | Product List | Glossary On
Versions: 1 2 3 4 5 6 7 8 9 10 11 12 13 14 15 16 17 18
160
FTUS42 KJAX 182323
TAFJAX
TAF
KJAX 182323Z 1900/1924 24003KT P6SM FEW050 SCT250
     FM190800 21002KT P6SM SCT040 BKN250
     FM191100 24010KT P6SM VCSH SCT020 BKN080 PROB30 1912/1916 5SM
      SHRA BR SCT010 BKN020
     FM191600 31012G20KT P6SM SCT050 BKN090 OVC120
     FM191800 32011KT P6SM FEW120 SCT250=

USA.gov is the U.S. government's official web portal to all federal, state and local government web resources and services.